createdAt,value
2023-02-20T00:00:19.920Z,1012.32
2023-02-20T00:01:19.910Z,1012.34
2023-02-20T00:02:19.914Z,1012.26
2023-02-20T00:03:19.883Z,1012.23
2023-02-20T00:04:19.872Z,1012.11
2023-02-20T00:05:19.865Z,1012.2
2023-02-20T00:06:19.849Z,1012.23
2023-02-20T00:07:19.842Z,1012.39
2023-02-20T00:08:19.843Z,1012.4
2023-02-20T00:09:19.816Z,1012.33
2023-02-20T00:10:19.816Z,1012.36
2023-02-20T00:11:19.805Z,1012.34
2023-02-20T00:12:19.787Z,1012.36
2023-02-20T00:13:19.774Z,1012.27
2023-02-20T00:14:19.781Z,1012.36
2023-02-20T00:15:19.758Z,1012.37
2023-02-20T00:16:19.745Z,1012.36
2023-02-20T00:17:19.748Z,1012.37
2023-02-20T00:18:19.725Z,1012.19
2023-02-20T00:19:19.715Z,1012.36
2023-02-20T00:20:19.723Z,1012.27
2023-02-20T00:21:19.692Z,1012.3
2023-02-20T00:22:19.680Z,1012.38
2023-02-20T00:23:19.683Z,1012.39
2023-02-20T00:24:19.677Z,1012.31
2023-02-20T00:25:19.645Z,1012.27
2023-02-20T00:26:19.641Z,1012.23
2023-02-20T00:27:19.625Z,1012.24
2023-02-20T00:28:19.624Z,1012.26
2023-02-20T00:29:19.607Z,1012.34
2023-02-20T00:30:19.616Z,1012.31
2023-02-20T00:31:19.587Z,1012.29
2023-02-20T00:32:19.571Z,1012.3
2023-02-20T00:33:19.562Z,1012.34
2023-02-20T00:34:19.555Z,1012.35
2023-02-20T00:35:19.548Z,1012.36
2023-02-20T00:36:19.589Z,1012.29
2023-02-20T00:37:19.517Z,1012.26
2023-02-20T00:38:19.509Z,1012.28
2023-02-20T00:39:19.496Z,1012.29
2023-02-20T00:40:19.503Z,1012.22
2023-02-20T00:41:19.485Z,1012.22
2023-02-20T00:42:19.495Z,1012.21
2023-02-20T00:43:19.461Z,1012.21
2023-02-20T00:44:19.447Z,1012.16
2023-02-20T00:45:19.435Z,1012.03
2023-02-20T00:46:19.437Z,1012.01
2023-02-20T00:47:19.416Z,1012.09
2023-02-20T00:48:19.422Z,1012.01
2023-02-20T00:49:19.393Z,1011.99
2023-02-20T00:50:19.387Z,1011.97
2023-02-20T00:51:19.385Z,1011.82
2023-02-20T00:52:19.483Z,1011.77
2023-02-20T00:53:19.390Z,1011.89
2023-02-20T00:54:19.336Z,1011.87
2023-02-20T00:55:19.352Z,1011.89
2023-02-20T00:56:19.315Z,1011.83
2023-02-20T00:57:19.311Z,1011.75
2023-02-20T00:58:19.297Z,1011.75
2023-02-20T00:59:19.294Z,1011.76
2023-02-20T01:00:19.285Z,1011.81
2023-02-20T01:01:19.277Z,1011.65
2023-02-20T01:02:19.256Z,1011.72
2023-02-20T01:03:19.275Z,1011.72
2023-02-20T01:04:19.237Z,1011.72
2023-02-20T01:05:19.240Z,1011.71
2023-02-20T01:06:19.220Z,1011.63
2023-02-20T01:07:19.215Z,1011.67
2023-02-20T01:08:19.187Z,1011.59
2023-02-20T01:09:19.215Z,1011.64
2023-02-20T01:10:19.193Z,1011.57
2023-02-20T01:11:19.172Z,1011.63
2023-02-20T01:12:19.149Z,1011.59
2023-02-20T01:13:19.155Z,1011.62
2023-02-20T01:14:19.138Z,1011.6
2023-02-20T01:15:19.199Z,1011.53
2023-02-20T01:16:19.118Z,1011.58
2023-02-20T01:17:19.112Z,1011.49
2023-02-20T01:18:19.082Z,1011.51
2023-02-20T01:19:19.075Z,1011.56
2023-02-20T01:20:19.111Z,1011.52
2023-02-20T01:21:19.072Z,1011.5
2023-02-20T01:22:19.048Z,1011.52
2023-02-20T01:23:19.030Z,1011.49
2023-02-20T01:24:19.017Z,1011.53
2023-02-20T01:25:19.008Z,1011.59
2023-02-20T01:26:19.018Z,1011.57
2023-02-20T01:27:18.987Z,1011.56
2023-02-20T01:28:18.975Z,1011.51
2023-02-20T01:29:18.971Z,1011.55
2023-02-20T01:30:18.953Z,1011.54
2023-02-20T01:31:18.942Z,1011.54
2023-02-20T01:32:18.947Z,1011.57
2023-02-20T01:33:18.925Z,1011.63
2023-02-20T01:34:18.912Z,1011.63
2023-02-20T01:35:18.899Z,1011.64
2023-02-20T01:36:18.889Z,1011.5
2023-02-20T01:37:18.883Z,1011.53
2023-02-20T01:38:18.886Z,1011.57
2023-02-20T01:39:18.857Z,1011.55
2023-02-20T01:40:18.851Z,1011.54
2023-02-20T01:41:18.840Z,1011.55
2023-02-20T01:42:18.826Z,1011.45
2023-02-20T01:43:18.820Z,1011.46
2023-02-20T01:44:18.838Z,1011.44
2023-02-20T01:45:18.793Z,1011.45
2023-02-20T01:46:18.783Z,1011.45
2023-02-20T01:47:18.773Z,1011.42
2023-02-20T01:48:18.766Z,1011.39
2023-02-20T01:49:18.752Z,1011.4
2023-02-20T01:50:18.763Z,1011.35
2023-02-20T01:51:18.731Z,1011.33
2023-02-20T01:52:18.717Z,1011.26
2023-02-20T01:53:18.713Z,1011.22
2023-02-20T01:54:18.699Z,1011.22
2023-02-20T01:55:18.688Z,1011.11
2023-02-20T01:56:18.704Z,1011.15
2023-02-20T01:57:18.665Z,1011.13
2023-02-20T01:58:18.655Z,1011.11
2023-02-20T01:59:18.641Z,1011.02
2023-02-20T02:00:18.635Z,1011.05
2023-02-20T02:01:18.631Z,1010.97
2023-02-20T02:02:18.634Z,1010.86
2023-02-20T02:03:18.604Z,1010.89
2023-02-20T02:04:18.591Z,1010.83
2023-02-20T02:05:18.594Z,1010.88
2023-02-20T02:06:18.571Z,1010.89
2023-02-20T02:07:18.556Z,1010.91
2023-02-20T02:08:18.574Z,1010.9
2023-02-20T02:09:18.538Z,1010.94
2023-02-20T02:10:18.526Z,1010.94
2023-02-20T02:11:18.519Z,1010.87
2023-02-20T02:12:18.510Z,1010.93
2023-02-20T02:13:18.493Z,1010.93
2023-02-20T02:14:18.500Z,1010.93
2023-02-20T02:15:18.475Z,1010.82
2023-02-20T02:16:18.461Z,1010.83
2023-02-20T02:17:18.463Z,1010.74
2023-02-20T02:18:18.448Z,1010.77
2023-02-20T02:19:18.431Z,1010.74
2023-02-20T02:20:18.437Z,1010.66
2023-02-20T02:21:18.410Z,1010.66
2023-02-20T02:22:18.407Z,1010.72
2023-02-20T02:23:18.387Z,1010.73
2023-02-20T02:24:18.375Z,1010.73
2023-02-20T02:25:18.373Z,1010.73
2023-02-20T02:26:18.390Z,1010.78
2023-02-20T02:27:18.344Z,1010.72
2023-02-20T02:28:18.335Z,1010.69
2023-02-20T02:29:18.340Z,1010.76
2023-02-20T02:30:18.315Z,1010.72
2023-02-20T02:31:18.305Z,1010.71
2023-02-20T02:32:18.322Z,1010.61
2023-02-20T02:33:18.286Z,1010.71
2023-02-20T02:34:18.271Z,1010.66
2023-02-20T02:35:18.266Z,1010.68
2023-02-20T02:36:18.259Z,1010.69
2023-02-20T02:37:18.243Z,1010.68
2023-02-20T02:38:18.256Z,1010.69
2023-02-20T02:39:18.218Z,1010.69
2023-02-20T02:40:18.211Z,1010.69
2023-02-20T02:41:18.204Z,1010.71
2023-02-20T02:42:18.190Z,1010.66
2023-02-20T02:43:18.175Z,1010.67
2023-02-20T02:44:18.200Z,1010.66
2023-02-20T02:45:18.152Z,1010.69
2023-02-20T02:46:18.144Z,1010.7
2023-02-20T02:47:18.131Z,1010.71
2023-02-20T02:48:18.125Z,1010.68
2023-02-20T02:49:18.112Z,1010.67
2023-02-20T02:50:18.126Z,1010.52
2023-02-20T02:51:18.094Z,1010.53
2023-02-20T02:52:18.086Z,1010.45
2023-02-20T02:53:18.091Z,1010.5
2023-02-20T02:54:18.066Z,1010.47
2023-02-20T02:55:18.048Z,1010.46
2023-02-20T02:56:18.070Z,1010.49
2023-02-20T02:57:18.029Z,1010.45
2023-02-20T02:58:18.025Z,1010.46
2023-02-20T02:59:18.006Z,1010.43
2023-02-20T03:00:17.994Z,1010.35
2023-02-20T03:01:18.011Z,1010.31
2023-02-20T03:02:17.974Z,1010.34
2023-02-20T03:03:17.964Z,1010.19
2023-02-20T03:04:17.958Z,1010.23
2023-02-20T03:05:17.963Z,1010.25
2023-02-20T03:06:17.972Z,1010.24
2023-02-20T03:07:17.926Z,1010.35
2023-02-20T03:08:17.923Z,1010.34
2023-02-20T03:09:17.899Z,1010.29
2023-02-20T03:10:17.900Z,1010.25
2023-02-20T03:11:17.891Z,1010.22
2023-02-20T03:12:17.889Z,1010.3
2023-02-20T03:13:17.870Z,1010.29
2023-02-20T03:14:17.876Z,1010.16
2023-02-20T03:15:17.836Z,1010.06
2023-02-20T03:16:17.844Z,1010.09
2023-02-20T03:17:17.810Z,1010.12
2023-02-20T03:18:17.806Z,1010.11
2023-02-20T03:19:17.809Z,1010.06
2023-02-20T03:20:17.801Z,1010.07
2023-02-20T03:21:17.771Z,1010.06
2023-02-20T03:22:17.766Z,1009.97
2023-02-20T03:23:17.754Z,1010.07
2023-02-20T03:24:17.739Z,1010.05
2023-02-20T03:25:17.729Z,1010.04
2023-02-20T03:26:17.728Z,1009.98
2023-02-20T03:27:17.712Z,1009.93
2023-02-20T03:28:17.703Z,1009.91
2023-02-20T03:29:17.690Z,1009.97
2023-02-20T03:30:17.682Z,1010.02
2023-02-20T03:31:17.678Z,1009.93
2023-02-20T03:32:17.669Z,1009.98
2023-02-20T03:33:17.644Z,1009.91
2023-02-20T03:34:17.636Z,1009.86
2023-02-20T03:35:17.637Z,1009.94
2023-02-20T03:36:17.608Z,1009.95
2023-02-20T03:37:17.601Z,1009.89
2023-02-20T03:38:17.604Z,1009.94
2023-02-20T03:39:17.595Z,1009.86
2023-02-20T03:40:17.568Z,1010.01
2023-02-20T03:41:17.563Z,1009.96
2023-02-20T03:42:17.557Z,1009.89
2023-02-20T03:43:17.566Z,1009.91
2023-02-20T03:44:17.530Z,1009.97
2023-02-20T03:45:17.517Z,1009.94
2023-02-20T03:46:17.504Z,1010.01
2023-02-20T03:47:17.498Z,1009.96
2023-02-20T03:48:17.490Z,1009.96
2023-02-20T03:49:17.490Z,1009.98
2023-02-20T03:50:17.470Z,1009.94
2023-02-20T03:51:17.455Z,1009.93
2023-02-20T03:52:17.441Z,1009.96
2023-02-20T03:53:17.433Z,1010.03
2023-02-20T03:54:17.422Z,1010.03
2023-02-20T03:55:17.431Z,1010
2023-02-20T03:56:17.404Z,1010
2023-02-20T03:57:17.387Z,1010.14
2023-02-20T03:58:17.377Z,1010.09
2023-02-20T03:59:17.366Z,1010.12
2023-02-20T04:00:17.361Z,1010.09
2023-02-20T04:01:17.359Z,1009.98
2023-02-20T04:02:17.346Z,1009.94
2023-02-20T04:03:17.327Z,1009.94
2023-02-20T04:04:17.318Z,1009.93
2023-02-20T04:05:17.305Z,1009.98
2023-02-20T04:06:17.291Z,1009.92
2023-02-20T04:07:17.304Z,1009.98
2023-02-20T04:08:17.276Z,1009.87
2023-02-20T04:09:17.274Z,1009.99
2023-02-20T04:10:17.266Z,1009.93
2023-02-20T04:11:17.246Z,1009.86
2023-02-20T04:12:17.233Z,1009.92
2023-02-20T04:13:17.240Z,1009.98
2023-02-20T04:14:17.222Z,1009.85
2023-02-20T04:15:17.207Z,1009.84
2023-02-20T04:16:17.204Z,1009.85
2023-02-20T04:17:17.186Z,1009.84
2023-02-20T04:18:17.166Z,1009.75
2023-02-20T04:19:17.176Z,1009.75
2023-02-20T04:20:17.165Z,1009.72
2023-02-20T04:21:17.144Z,1009.8
2023-02-20T04:22:17.135Z,1009.68
2023-02-20T04:23:17.110Z,1009.8
2023-02-20T04:24:17.099Z,1009.73
2023-02-20T04:25:17.116Z,1009.68
2023-02-20T04:26:17.081Z,1009.68
2023-02-20T04:27:17.067Z,1009.71
2023-02-20T04:28:17.059Z,1009.72
2023-02-20T04:29:17.052Z,1009.68
2023-02-20T04:30:17.039Z,1009.68
2023-02-20T04:31:17.051Z,1009.67
2023-02-20T04:32:17.019Z,1009.61
2023-02-20T04:33:17.007Z,1009.54
2023-02-20T04:34:17.000Z,1009.61
2023-02-20T04:35:16.984Z,1009.57
2023-02-20T04:36:16.978Z,1009.57
2023-02-20T04:37:16.990Z,1009.47
2023-02-20T04:38:16.954Z,1009.45
2023-02-20T04:39:16.944Z,1009.44
2023-02-20T04:40:16.931Z,1009.46
2023-02-20T04:41:16.918Z,1009.36
2023-02-20T04:42:16.916Z,1009.43
2023-02-20T04:43:16.915Z,1009.38
2023-02-20T04:44:16.887Z,1009.45
2023-02-20T04:45:16.881Z,1009.48
2023-02-20T04:46:16.861Z,1009.44
2023-02-20T04:47:16.857Z,1009.36
2023-02-20T04:48:16.870Z,1009.37
2023-02-20T04:49:16.856Z,1009.48
2023-02-20T04:50:16.826Z,1009.39
2023-02-20T04:51:16.816Z,1009.38
2023-02-20T04:52:16.803Z,1009.31
2023-02-20T04:53:16.792Z,1009.29
2023-02-20T04:54:16.780Z,1009.36
2023-02-20T04:55:16.788Z,1009.37
2023-02-20T04:56:16.768Z,1009.32
2023-02-20T04:57:16.751Z,1009.34
2023-02-20T04:58:16.738Z,1009.38
2023-02-20T04:59:16.727Z,1009.31
2023-02-20T05:00:16.716Z,1009.22
2023-02-20T05:01:16.709Z,1009.25
2023-02-20T05:02:16.709Z,1009.17
2023-02-20T05:03:16.685Z,1009.15
2023-02-20T05:04:16.672Z,1009.25
2023-02-20T05:05:16.667Z,1009.19
2023-02-20T05:06:16.648Z,1009.01
2023-02-20T05:07:16.643Z,1008.98
2023-02-20T05:08:16.644Z,1008.81
2023-02-20T05:09:16.616Z,1008.93
2023-02-20T05:10:16.612Z,1008.98
2023-02-20T05:11:16.597Z,1008.95
2023-02-20T05:12:16.602Z,1009
2023-02-20T05:13:16.659Z,1008.93
2023-02-20T05:14:16.577Z,1008.9
2023-02-20T05:15:16.557Z,1008.99
2023-02-20T05:16:16.547Z,1008.87
2023-02-20T05:17:16.534Z,1008.9
2023-02-20T05:18:16.521Z,1008.95
2023-02-20T05:19:16.514Z,1008.96
2023-02-20T05:20:16.519Z,1008.83
2023-02-20T05:21:16.488Z,1008.82
2023-02-20T05:22:16.481Z,1008.81
2023-02-20T05:23:16.469Z,1008.81
2023-02-20T05:24:16.455Z,1008.8
2023-02-20T05:25:16.454Z,1008.8
2023-02-20T05:26:16.456Z,1008.82
2023-02-20T05:27:16.426Z,1008.74
2023-02-20T05:28:16.422Z,1008.84
2023-02-20T05:29:16.406Z,1008.77
2023-02-20T05:30:16.394Z,1008.84
2023-02-20T05:31:16.384Z,1008.82
2023-02-20T05:32:16.387Z,1008.84
2023-02-20T05:33:16.361Z,1008.96
2023-02-20T05:34:16.365Z,1008.72
2023-02-20T05:35:16.340Z,1008.82
2023-02-20T05:36:16.327Z,1008.79
2023-02-20T05:37:16.319Z,1008.81
2023-02-20T05:38:16.322Z,1008.71
2023-02-20T05:39:16.298Z,1008.72
2023-02-20T05:40:16.281Z,1008.74
2023-02-20T05:41:16.276Z,1008.65
2023-02-20T05:42:16.263Z,1008.65
2023-02-20T05:43:16.256Z,1008.62
2023-02-20T05:44:16.263Z,1008.62
2023-02-20T05:45:16.226Z,1008.63
2023-02-20T05:46:16.218Z,1008.63
2023-02-20T05:47:16.209Z,1008.68
2023-02-20T05:48:16.197Z,1008.68
2023-02-20T05:49:16.184Z,1008.57
2023-02-20T05:50:16.193Z,1008.51
2023-02-20T05:51:16.172Z,1008.64
2023-02-20T05:52:16.168Z,1008.65
2023-02-20T05:53:16.142Z,1008.64
2023-02-20T05:54:16.132Z,1008.65
2023-02-20T05:55:16.125Z,1008.67
2023-02-20T05:56:16.136Z,1008.66
2023-02-20T05:57:16.098Z,1008.65
2023-02-20T05:58:16.096Z,1008.64
2023-02-20T05:59:16.086Z,1008.65
2023-02-20T06:00:16.070Z,1008.7
2023-02-20T06:01:16.059Z,1008.64
2023-02-20T06:02:16.066Z,1008.62
2023-02-20T06:03:16.036Z,1008.63
2023-02-20T06:04:16.024Z,1008.53
2023-02-20T06:05:16.025Z,1008.52
2023-02-20T06:06:16.011Z,1008.55
2023-02-20T06:07:16.003Z,1008.48
2023-02-20T06:08:16.009Z,1008.54
2023-02-20T06:09:15.968Z,1008.48
2023-02-20T06:10:15.961Z,1008.55
2023-02-20T06:11:15.959Z,1008.5
2023-02-20T06:12:15.935Z,1008.54
2023-02-20T06:13:15.926Z,1008.53
2023-02-20T06:14:15.936Z,1008.51
2023-02-20T06:15:15.908Z,1008.44
2023-02-20T06:16:15.902Z,1008.49
2023-02-20T06:17:15.892Z,1008.45
2023-02-20T06:18:15.874Z,1008.47
2023-02-20T06:19:15.864Z,1008.45
2023-02-20T06:20:15.878Z,1008.44
2023-02-20T06:21:15.849Z,1008.46
2023-02-20T06:22:15.838Z,1008.51
2023-02-20T06:23:15.859Z,1008.44
2023-02-20T06:24:15.821Z,1008.43
2023-02-20T06:25:15.808Z,1008.35
2023-02-20T06:26:15.817Z,1008.39
2023-02-20T06:27:15.790Z,1008.36
2023-02-20T06:28:15.777Z,1008.44
2023-02-20T06:29:15.767Z,1008.34
2023-02-20T06:30:15.751Z,1008.32
2023-02-20T06:31:15.746Z,1008.38
2023-02-20T06:32:15.762Z,1008.34
2023-02-20T06:33:15.731Z,1008.38
2023-02-20T06:34:15.724Z,1008.41
2023-02-20T06:35:15.720Z,1008.35
2023-02-20T06:36:15.702Z,1008.37
2023-02-20T06:37:15.691Z,1008.32
2023-02-20T06:38:15.667Z,1008.35
2023-02-20T06:39:15.656Z,1008.34
2023-02-20T06:40:15.674Z,1008.39
2023-02-20T06:41:15.638Z,1008.33
2023-02-20T06:42:15.626Z,1008.35
2023-02-20T06:43:15.617Z,1008.46
2023-02-20T06:44:15.604Z,1008.35
2023-02-20T06:45:15.594Z,1008.34
2023-02-20T06:46:15.595Z,1008.33
2023-02-20T06:47:15.574Z,1008.24
2023-02-20T06:48:15.562Z,1008.3
2023-02-20T06:49:15.545Z,1008.36
2023-02-20T06:50:15.547Z,1008.4
2023-02-20T06:51:15.539Z,1008.33
2023-02-20T06:52:15.539Z,1008.48
2023-02-20T06:53:15.508Z,1008.42
2023-02-20T06:54:15.495Z,1008.36
2023-02-20T06:55:15.483Z,1008.46
2023-02-20T06:56:15.477Z,1008.42
2023-02-20T06:57:15.461Z,1008.53
2023-02-20T06:58:15.569Z,1008.56
2023-02-20T06:59:15.447Z,1008.56
2023-02-20T07:00:15.441Z,1008.63
2023-02-20T07:01:15.424Z,1008.54
2023-02-20T07:02:15.423Z,1008.62
2023-02-20T07:03:15.454Z,1008.61
2023-02-20T07:04:15.388Z,1008.6
2023-02-20T07:05:15.394Z,1008.57
2023-02-20T07:06:15.372Z,1008.48
2023-02-20T07:07:15.375Z,1008.58
2023-02-20T07:08:15.344Z,1008.56
2023-02-20T07:09:15.342Z,1008.53
2023-02-20T07:10:15.340Z,1008.61
2023-02-20T07:11:15.317Z,1008.55
2023-02-20T07:12:15.302Z,1008.54
2023-02-20T07:13:15.295Z,1008.51
2023-02-20T07:14:15.282Z,1008.58
2023-02-20T07:15:15.287Z,1008.52
2023-02-20T07:16:15.260Z,1008.53
2023-02-20T07:17:15.299Z,1008.54
2023-02-20T07:18:15.236Z,1008.53
2023-02-20T07:19:15.227Z,1008.57
2023-02-20T07:20:15.214Z,1008.46
2023-02-20T07:21:15.222Z,1008.52
2023-02-20T07:22:15.195Z,1008.44
2023-02-20T07:23:15.190Z,1008.46
2023-02-20T07:24:15.176Z,1008.47
2023-02-20T07:25:15.159Z,1008.46
2023-02-20T07:26:15.153Z,1008.49
2023-02-20T07:27:15.173Z,1008.56
2023-02-20T07:28:15.127Z,1008.47
2023-02-20T07:29:15.144Z,1008.47
2023-02-20T07:30:15.112Z,1008.53
2023-02-20T07:31:15.099Z,1008.5
2023-02-20T07:32:15.090Z,1008.45
2023-02-20T07:33:15.074Z,1008.48
2023-02-20T07:34:15.100Z,1008.35
2023-02-20T07:35:15.053Z,1008.35
2023-02-20T07:36:15.046Z,1008.4
2023-02-20T07:37:15.035Z,1008.47
2023-02-20T07:38:15.022Z,1008.51
2023-02-20T07:39:15.020Z,1008.59
2023-02-20T07:40:15.010Z,1008.53
2023-02-20T07:41:15.025Z,1008.55
2023-02-20T07:42:14.989Z,1008.55
2023-02-20T07:43:14.979Z,1008.47
2023-02-20T07:44:14.957Z,1008.61
2023-02-20T07:45:14.948Z,1008.5
2023-02-20T07:46:14.942Z,1008.37
2023-02-20T07:47:14.943Z,1008.49
2023-02-20T07:48:14.943Z,1008.51
2023-02-20T07:49:14.905Z,1008.5
2023-02-20T07:50:14.896Z,1008.65
2023-02-20T07:51:14.886Z,1008.65
2023-02-20T07:52:14.881Z,1008.62
2023-02-20T07:53:14.864Z,1008.61
2023-02-20T07:54:14.848Z,1008.69
2023-02-20T07:55:14.859Z,1008.71
2023-02-20T07:56:14.827Z,1008.71
2023-02-20T07:57:14.823Z,1008.71
2023-02-20T07:58:14.808Z,1008.63
2023-02-20T07:59:14.795Z,1008.77
2023-02-20T08:00:14.796Z,1008.71
2023-02-20T08:01:14.806Z,1008.75
2023-02-20T08:02:14.771Z,1008.69
2023-02-20T08:03:14.774Z,1008.75
2023-02-20T08:04:14.759Z,1008.66
2023-02-20T08:05:14.739Z,1008.7
2023-02-20T08:06:14.722Z,1008.56
2023-02-20T08:07:14.818Z,1008.79
2023-02-20T08:08:14.698Z,1008.77
2023-02-20T08:09:14.690Z,1008.81
2023-02-20T08:10:14.679Z,1008.81
2023-02-20T08:11:14.670Z,1008.83
2023-02-20T08:12:14.684Z,1008.82
2023-02-20T08:13:14.646Z,1008.88
2023-02-20T08:14:14.636Z,1008.64
2023-02-20T08:15:14.645Z,1008.66
2023-02-20T08:16:14.662Z,1008.76
2023-02-20T08:17:14.605Z,1008.79
2023-02-20T08:18:14.595Z,1008.79
2023-02-20T08:19:14.641Z,1008.71
2023-02-20T08:20:14.588Z,1008.7
2023-02-20T08:21:14.563Z,1008.72
2023-02-20T08:22:14.602Z,1008.77
2023-02-20T08:23:14.635Z,1008.75
2023-02-20T08:24:14.557Z,1008.68
2023-02-20T08:25:14.547Z,1008.72
2023-02-20T08:26:14.512Z,1008.73
2023-02-20T08:27:14.497Z,1008.75
2023-02-20T08:28:14.539Z,1008.78
2023-02-20T08:29:15.478Z,1008.73
2023-02-20T08:30:14.479Z,1008.67
2023-02-20T08:31:14.463Z,1008.7
2023-02-20T08:32:14.791Z,1008.69
2023-02-20T08:33:14.433Z,1008.62
2023-02-20T08:34:14.874Z,1008.66
2023-02-20T08:36:54.739Z,1008.76
2023-02-20T08:37:54.722Z,1008.77
2023-02-20T08:38:54.688Z,1008.76
2023-02-20T08:39:54.695Z,1008.75
2023-02-20T08:40:54.684Z,1008.66
2023-02-20T08:41:54.676Z,1008.61
2023-02-20T08:42:54.677Z,1008.62
2023-02-20T08:43:54.706Z,1008.62
2023-02-20T08:44:54.647Z,1008.67
2023-02-20T08:45:54.660Z,1008.58
2023-02-20T08:46:54.604Z,1008.65
2023-02-20T08:47:54.632Z,1008.42
2023-02-20T08:48:54.586Z,1008.59
2023-02-20T08:49:55.400Z,1008.58
2023-02-20T08:50:54.609Z,1008.59
2023-02-20T08:51:54.553Z,1008.53
2023-02-20T08:52:54.568Z,1008.58
2023-02-20T08:53:54.557Z,1008.53
2023-02-20T08:54:54.553Z,1008.55
2023-02-20T08:55:54.543Z,1008.58
2023-02-20T08:56:54.507Z,1008.59
2023-02-20T08:57:54.496Z,1008.52
2023-02-20T08:58:54.481Z,1008.57
2023-02-20T08:59:54.472Z,1008.46
2023-02-20T09:00:54.494Z,1008.54
2023-02-20T09:01:54.455Z,1008.53
2023-02-20T09:02:54.436Z,1008.49
2023-02-20T09:03:54.458Z,1008.62
2023-02-20T09:04:54.425Z,1008.55
2023-02-20T09:05:54.404Z,1008.56
2023-02-20T09:06:54.441Z,1008.55
2023-02-20T09:07:54.420Z,1008.52
2023-02-20T09:08:54.379Z,1008.47
2023-02-20T09:09:54.363Z,1008.65
2023-02-20T09:10:54.361Z,1008.5
2023-02-20T09:11:54.899Z,1008.55
2023-02-20T09:12:54.333Z,1008.51
2023-02-20T09:13:54.326Z,1008.48
2023-02-20T09:14:54.318Z,1008.44
2023-02-20T09:15:54.311Z,1008.36
2023-02-20T09:16:54.286Z,1008.5
2023-02-20T09:17:54.281Z,1008.47
2023-02-20T09:18:54.269Z,1008.46
2023-02-20T09:19:54.336Z,1008.42
2023-02-20T09:20:54.257Z,1008.39
2023-02-20T09:21:54.238Z,1008.41
2023-02-20T09:22:54.258Z,1008.45
2023-02-20T09:23:54.214Z,1008.52
2023-02-20T09:24:54.200Z,1008.47
2023-02-20T09:25:54.204Z,1008.49
2023-02-20T09:26:54.208Z,1008.54
2023-02-20T09:27:54.259Z,1008.47
2023-02-20T09:28:54.175Z,1008.4
2023-02-20T09:29:54.152Z,1008.4
2023-02-20T09:30:54.151Z,1008.37
2023-02-20T09:31:54.148Z,1008.4
2023-02-20T09:32:54.145Z,1008.29
2023-02-20T09:33:54.118Z,1008.4
2023-02-20T09:34:54.118Z,1008.44
2023-02-20T09:35:54.095Z,1008.37
2023-02-20T09:36:54.074Z,1008.37
2023-02-20T09:37:54.064Z,1008.33
2023-02-20T09:38:54.099Z,1008.28
2023-02-20T09:39:54.048Z,1008.27
2023-02-20T09:40:54.066Z,1008.4
2023-02-20T09:41:54.027Z,1008.3
2023-02-20T09:42:54.037Z,1008.23
2023-02-20T09:43:53.997Z,1008.27
2023-02-20T09:44:53.992Z,1008.24
2023-02-20T09:45:54.009Z,1008.35
2023-02-20T09:46:54.000Z,1008.27
2023-02-20T09:47:53.957Z,1008.25
2023-02-20T09:48:53.979Z,1008.15
2023-02-20T09:49:53.935Z,1008.16
2023-02-20T09:50:53.956Z,1008.14
2023-02-20T09:51:53.932Z,1008.29
2023-02-20T09:52:54.914Z,1008.22
2023-02-20T09:53:53.900Z,1008.15
2023-02-20T09:54:53.899Z,1008.17
2023-02-20T09:55:53.881Z,1008.1
2023-02-20T09:56:53.865Z,1008.07
2023-02-20T09:57:54.396Z,1008.08
2023-02-20T09:58:53.840Z,1008.11
2023-02-20T09:59:53.893Z,1008.09
2023-02-20T10:00:53.822Z,1008.08
2023-02-20T10:01:53.845Z,1008.01
2023-02-20T10:02:53.808Z,1007.83
2023-02-20T10:03:53.789Z,1008.09
2023-02-20T10:04:53.829Z,1007.98
2023-02-20T10:05:53.869Z,1007.95
2023-02-20T10:06:53.770Z,1007.99
2023-02-20T10:07:53.781Z,1007.95
2023-02-20T10:08:53.774Z,1007.98
2023-02-20T10:09:53.888Z,1007.9
2023-02-20T10:10:53.809Z,1007.99
2023-02-20T10:11:53.730Z,1008.01
2023-02-20T10:12:53.788Z,1007.98
2023-02-20T10:13:54.762Z,1008.08
2023-02-20T10:14:53.723Z,1007.95
2023-02-20T10:15:54.033Z,1007.98
2023-02-20T10:16:53.766Z,1007.93
2023-02-20T10:17:53.731Z,1008
2023-02-20T10:18:53.643Z,1007.9
2023-02-20T10:19:53.652Z,1007.93
2023-02-20T10:20:53.627Z,1007.91
2023-02-20T10:21:53.598Z,1008.03
2023-02-20T10:22:53.585Z,1007.93
2023-02-20T10:23:53.575Z,1007.88
2023-02-20T10:24:54.390Z,1007.9
2023-02-20T10:25:53.591Z,1007.92
2023-02-20T10:26:53.562Z,1007.86
2023-02-20T10:27:53.534Z,1007.85
2023-02-20T10:28:53.534Z,1007.82
2023-02-20T10:29:53.509Z,1007.69
2023-02-20T10:30:53.499Z,1007.69
2023-02-20T10:31:53.493Z,1007.72
2023-02-20T10:32:53.507Z,1007.69
2023-02-20T10:33:53.496Z,1007.73
2023-02-20T10:34:53.499Z,1007.59
2023-02-20T10:35:53.451Z,1007.69
2023-02-20T10:36:53.434Z,1007.69
2023-02-20T10:37:53.434Z,1007.78
2023-02-20T10:38:53.452Z,1007.68
2023-02-20T10:39:53.403Z,1007.66
2023-02-20T10:40:53.392Z,1007.68
2023-02-20T10:41:53.378Z,1007.72
2023-02-20T10:42:53.369Z,1007.81
2023-02-20T10:43:53.374Z,1007.6
2023-02-20T10:44:53.355Z,1007.74
2023-02-20T10:45:53.358Z,1007.59
2023-02-20T10:46:53.339Z,1007.73
2023-02-20T10:47:53.318Z,1007.75
2023-02-20T10:48:53.315Z,1007.75
2023-02-20T10:49:53.307Z,1007.72
2023-02-20T10:50:53.375Z,1007.71
2023-02-20T10:51:54.282Z,1007.7
2023-02-20T10:52:53.295Z,1007.81
2023-02-20T10:53:53.307Z,1007.83
2023-02-20T10:54:53.256Z,1007.81
2023-02-20T10:55:53.286Z,1007.8
2023-02-20T10:56:53.467Z,1007.89
2023-02-20T11:03:14.192Z,1007.92
2023-02-20T11:04:14.129Z,1007.91
2023-02-20T11:05:14.199Z,1007.94
2023-02-20T11:06:14.125Z,1007.9
2023-02-20T11:07:14.223Z,1007.94
2023-02-20T11:08:15.058Z,1008.06
2023-02-20T11:09:14.026Z,1007.97
2023-02-20T11:10:14.016Z,1007.98
2023-02-20T11:11:14.026Z,1007.98
2023-02-20T11:12:14.007Z,1007.93
2023-02-20T11:13:13.971Z,1007.96
2023-02-20T11:14:13.975Z,1007.94
2023-02-20T11:15:13.952Z,1007.82
2023-02-20T11:16:13.939Z,1007.83
2023-02-20T11:17:13.927Z,1007.79
2023-02-20T11:18:14.026Z,1007.82
2023-02-20T11:19:13.948Z,1007.81
2023-02-20T11:20:13.962Z,1007.79
2023-02-20T11:21:14.911Z,1007.85
2023-02-20T11:22:13.897Z,1007.85
2023-02-20T11:23:15.094Z,1007.93
2023-02-20T11:24:13.902Z,1007.92
2023-02-20T11:25:13.845Z,1007.9
2023-02-20T11:26:13.850Z,1007.76
2023-02-20T11:27:13.819Z,1007.84
2023-02-20T11:28:13.867Z,1007.78
2023-02-20T11:29:13.875Z,1007.76
2023-02-20T11:30:13.794Z,1007.76
2023-02-20T11:31:13.813Z,1007.72
2023-02-20T11:32:13.783Z,1007.75
2023-02-20T11:33:13.758Z,1007.86
2023-02-20T11:34:13.747Z,1007.66
2023-02-20T11:35:13.737Z,1007.72
2023-02-20T11:36:13.726Z,1007.82
2023-02-20T11:37:13.714Z,1007.68
2023-02-20T11:38:13.718Z,1007.74
2023-02-20T11:39:13.694Z,1007.65
2023-02-20T11:40:13.695Z,1007.7
2023-02-20T11:41:13.707Z,1007.48
2023-02-20T11:42:13.719Z,1007.53
2023-02-20T11:43:13.669Z,1007.57
2023-02-20T11:44:13.666Z,1007.65
2023-02-20T11:45:13.635Z,1007.57
2023-02-20T11:46:13.646Z,1007.55
2023-02-20T11:47:13.604Z,1007.46
2023-02-20T11:52:39.972Z,1007.63
2023-02-20T11:53:39.662Z,1007.5
2023-02-20T11:54:39.671Z,1007.5
2023-02-20T11:55:39.740Z,1007.56
2023-02-20T11:56:39.564Z,1007.54
2023-02-20T11:57:39.501Z,1007.48
2023-02-20T11:58:39.537Z,1007.35
2023-02-20T11:59:39.520Z,1007.35
2023-02-20T12:00:39.463Z,1007.25
2023-02-20T12:01:39.449Z,1007.2
2023-02-20T12:02:39.449Z,1007.28
2023-02-20T12:03:39.436Z,1007.34
2023-02-20T12:04:39.415Z,1007.34
2023-02-20T12:05:39.407Z,1007.28
2023-02-20T12:06:39.403Z,1007.2
2023-02-20T12:07:39.477Z,1007.06
2023-02-20T12:08:39.397Z,1007.13
2023-02-20T12:09:39.428Z,1007.05
2023-02-20T12:10:39.357Z,1007.07
2023-02-20T12:11:39.364Z,1007.04
2023-02-20T12:12:39.345Z,1007.21
2023-02-20T12:13:39.322Z,1007.27
2023-02-20T12:14:39.320Z,1007.19
2023-02-20T12:15:39.311Z,1007.06
2023-02-20T12:16:39.376Z,1006.91
2023-02-20T12:17:39.287Z,1006.93
2023-02-20T12:18:39.298Z,1006.73